Time;durP1;ratioP1;P1;durP2;ratioP2;P2;SDS_P1;SDS_P2;PMS_P1;PMS_P2;Temp;Humidity;BMP_temperature;BMP_pressure;BME280_temperature;BME280_humidity;BME280_pressure;Samples;Min_cycle;Max_cycle;Signal;HPM_P1;HPM_P2
2022/01/18 00:00:15;;;;;;;18.30;5.35;;;;;;;-1.73;79.20;101377.27;2132758;81;21026;-89
2022/01/18 00:03:16;;;;;;;18.05;5.37;;;;;;;-1.75;79.08;101384.73;2131298;82;21098;-88
2022/01/18 00:06:17;;;;;;;23.92;5.95;;;;;;;-1.77;79.17;101380.03;2136702;81;21516;-85
2022/01/18 00:09:23;;;;;;;16.42;4.92;;;;;;;-1.78;79.28;101364.03;2131826;82;21004;-86
2022/01/18 00:12:54;;;;;;;19.95;4.97;;;;;;;-1.78;79.46;101379.65;2137193;82;21047;-86
2022/01/18 00:15:43;;;;;;;11.70;4.58;;;;;;;-1.81;79.48;101381.45;2128443;81;21028;-87
2022/01/18 00:18:40;;;;;;;21.62;4.42;;;;;;;-1.83;79.45;101388.48;2131200;81;22153;-86
2022/01/18 00:25:02;;;;;;;23.47;4.67;;;;;;;-1.85;79.59;101397.25;2137339;81;21529;-85
2022/01/18 00:28:05;;;;;;;17.15;5.33;;;;;;;-1.84;79.58;101407.58;2131688;81;21060;-89
2022/01/18 00:34:51;;;;;;;24.47;5.42;;;;;;;-1.83;79.87;101409.73;2138404;81;20965;-86
2022/01/18 00:37:33;;;;;;;18.85;4.22;;;;;;;-1.81;79.77;101412.67;2133551;81;21018;-89
2022/01/18 00:40:30;;;;;;;16.37;4.60;;;;;;;-1.81;79.67;101419.18;2115538;82;22001;-90
2022/01/18 00:43:31;;;;;;;17.82;5.45;;;;;;;-1.79;79.74;101416.99;2135331;82;21047;-89
2022/01/18 00:46:32;;;;;;;14.10;4.65;;;;;;;-1.79;79.86;101419.59;2133645;82;21059;-90
2022/01/18 00:49:40;;;;;;;16.42;4.33;;;;;;;-1.79;79.82;101428.70;2135997;82;20964;-89
2022/01/18 00:52:42;;;;;;;19.12;5.50;;;;;;;-1.78;79.84;101429.09;2151066;81;21070;-89
2022/01/18 00:55:51;;;;;;;16.17;4.70;;;;;;;-1.79;79.79;101424.80;2152307;81;21035;-88
2022/01/18 00:58:47;;;;;;;11.65;4.60;;;;;;;-1.79;79.82;101427.41;2156212;81;21031;-90
2022/01/18 01:02:08;;;;;;;15.83;4.70;;;;;;;-1.78;79.82;101424.73;2153296;81;21049;-89
2022/01/18 01:05:10;;;;;;;16.23;5.12;;;;;;;-1.76;79.93;101432.49;2149748;81;21011;-88
2022/01/18 01:08:11;;;;;;;23.32;5.28;;;;;;;-1.76;79.81;101435.09;2154591;81;21005;-89
2022/01/18 01:11:13;;;;;;;13.83;4.78;;;;;;;-1.76;79.88;101441.14;2156727;81;21011;-89
2022/01/18 01:14:20;;;;;;;14.28;4.00;;;;;;;-1.76;79.93;101435.09;2159314;81;20956;-89
2022/01/18 01:34:18;;;;;;;12.47;4.35;;;;;;;-1.79;79.81;101452.12;2156318;81;20992;-89
2022/01/18 01:43:30;;;;;;;15.88;4.80;;;;;;;-1.83;79.85;101468.27;2155179;81;21091;-88
2022/01/18 01:46:30;;;;;;;16.85;5.60;;;;;;;-1.86;79.82;101462.75;2157051;81;20977;-88
2022/01/18 01:49:31;;;;;;;24.75;5.53;;;;;;;-1.87;79.83;101459.73;2157719;81;21517;-87
2022/01/18 01:52:32;;;;;;;24.43;5.17;;;;;;;-1.89;79.90;101464.59;2145134;79;21074;-87
2022/01/18 01:55:34;;;;;;;16.27;4.10;;;;;;;-1.90;79.92;101462.45;2145010;81;21035;-86
2022/01/18 01:58:35;;;;;;;15.08;4.40;;;;;;;-1.91;80.00;101458.62;2142340;82;21059;-88
2022/01/18 02:01:47;;;;;;;21.40;4.60;;;;;;;-1.91;80.02;101461.22;2142517;81;21601;-88
2022/01/18 02:04:48;;;;;;;14.53;4.70;;;;;;;-1.90;80.08;101461.61;2137226;82;21103;-87
2022/01/18 02:07:51;;;;;;;10.85;3.95;;;;;;;-1.91;80.06;101458.16;2103218;84;20947;-88
2022/01/18 02:10:52;;;;;;;13.68;4.08;;;;;;;-1.94;79.99;101454.37;2095542;83;21017;-88
2022/01/18 02:13:53;;;;;;;13.60;4.45;;;;;;;-1.95;80.10;101465.66;2087702;84;21040;-87
2022/01/18 02:23:37;;;;;;;16.70;4.10;;;;;;;-1.99;80.30;101470.59;2100129;83;21018;-86
2022/01/18 02:26:39;;;;;;;16.48;4.12;;;;;;;-1.98;80.25;101475.33;2098947;83;21560;-89
2022/01/18 02:29:41;;;;;;;14.93;3.77;;;;;;;-2.00;80.24;101489.67;2096629;84;21066;-89
2022/01/18 02:32:42;;;;;;;10.72;3.83;;;;;;;-2.01;80.20;101493.19;2087819;84;21117;-89
2022/01/18 02:35:46;;;;;;;25.00;4.55;;;;;;;-2.04;80.29;101506.30;2085820;84;21549;-88
2022/01/18 02:38:48;;;;;;;18.40;4.62;;;;;;;-2.05;80.43;101504.62;2085549;84;20996;-86
2022/01/18 02:42:04;;;;;;;15.48;4.03;;;;;;;-2.01;80.42;101497.09;2089832;84;22170;-89
2022/01/18 02:45:07;;;;;;;19.42;4.62;;;;;;;-2.02;80.35;101503.67;2085834;84;21084;-89
2022/01/18 02:48:08;;;;;;;13.50;4.50;;;;;;;-2.04;80.37;101514.11;2084848;84;21073;-88
2022/01/18 02:51:09;;;;;;;17.15;4.85;;;;;;;-2.07;80.42;101499.45;2093871;85;21051;-86
2022/01/18 02:54:14;;;;;;;12.95;3.70;;;;;;;-2.07;80.68;101503.81;2136887;82;20992;-88
2022/01/18 02:57:25;;;;;;;20.82;4.72;;;;;;;-2.06;80.76;101489.89;2136377;81;21040;-88
2022/01/18 03:00:31;;;;;;;16.37;3.87;;;;;;;-2.08;80.70;101487.36;2133080;81;21561;-88
2022/01/18 03:03:24;;;;;;;21.20;5.05;;;;;;;-2.10;80.93;101495.66;2130756;82;21032;-89
2022/01/18 03:06:24;;;;;;;15.08;4.22;;;;;;;-2.10;81.03;101500.02;2134953;82;21000;-87
2022/01/18 03:09:25;;;;;;;14.85;4.30;;;;;;;-2.10;81.04;101515.16;2135651;82;21478;-87
2022/01/18 03:12:27;;;;;;;25.45;5.08;;;;;;;-2.09;80.91;101505.61;2137208;82;21007;-87
2022/01/18 03:15:29;;;;;;;16.70;4.65;;;;;;;-2.13;81.03;101499.67;2132331;81;21017;-89
2022/01/18 03:18:30;;;;;;;15.38;4.42;;;;;;;-2.14;81.08;101490.60;2134099;82;21047;-86
2022/01/18 03:21:31;;;;;;;19.92;4.58;;;;;;;-2.14;81.06;101504.48;2136313;82;21056;-89
2022/01/18 03:24:46;;;;;;;15.08;4.17;;;;;;;-2.13;81.24;101518.33;2134635;82;21435;-89
2022/01/18 03:31:00;;;;;;;16.43;4.23;;;;;;;-2.13;81.19;101527.44;2140145;82;21055;-87
2022/01/18 03:34:01;;;;;;;21.05;4.30;;;;;;;-2.16;81.32;101534.04;2137140;81;21569;-88
2022/01/18 03:37:03;;;;;;;14.23;4.10;;;;;;;-2.16;81.36;101536.64;2142524;81;21497;-89
2022/01/18 03:40:06;;;;;;;18.05;4.87;;;;;;;-2.15;81.39;101537.03;2133616;82;21087;-89
2022/01/18 03:43:11;;;;;;;21.93;5.58;;;;;;;-2.16;81.42;101541.84;2130842;82;20986;-87
2022/01/18 03:46:11;;;;;;;21.50;4.70;;;;;;;-2.17;81.54;101542.27;2136653;82;20990;-88
2022/01/18 03:49:12;;;;;;;23.60;4.35;;;;;;;-2.19;81.52;101551.05;2136448;81;21612;-86
2022/01/18 03:52:13;;;;;;;21.40;4.80;;;;;;;-2.20;81.70;101553.23;2137819;81;21581;-89
2022/01/18 03:55:18;;;;;;;21.62;3.77;;;;;;;-2.22;81.65;101555.89;2138182;81;21000;-87
2022/01/18 03:58:20;;;;;;;18.90;5.05;;;;;;;-2.23;81.93;101559.83;2096080;83;21042;-86
2022/01/18 04:01:21;;;;;;;17.20;4.30;;;;;;;-2.23;81.84;101571.53;2098102;83;21053;-90
2022/01/18 04:04:22;;;;;;;19.55;4.40;;;;;;;-2.22;81.83;101575.82;2087045;84;21029;-88
2022/01/18 04:07:23;;;;;;;15.85;4.40;;;;;;;-2.23;81.79;101571.53;2142233;82;21050;-89
2022/01/18 04:10:24;;;;;;;18.45;4.72;;;;;;;-2.23;81.89;101576.28;2138578;82;20949;-88
2022/01/18 04:13:26;;;;;;;14.80;4.33;;;;;;;-2.23;81.83;101587.14;2140905;82;21006;-89
2022/01/18 04:16:27;;;;;;;16.73;4.17;;;;;;;-2.23;81.85;101587.98;2141085;82;21023;-89
2022/01/18 04:26:03;;;;;;;21.80;5.05;;;;;;;-2.26;81.95;101587.62;2085142;84;21163;-88
2022/01/18 04:29:00;;;;;;;20.23;5.12;;;;;;;-2.25;81.96;101588.50;2086773;84;21055;-88
2022/01/18 04:32:01;;;;;;;22.25;4.65;;;;;;;-2.27;81.96;101595.03;2093482;84;21056;-90
2022/01/18 04:35:05;;;;;;;20.32;5.55;;;;;;;-2.28;81.85;101599.84;2090156;84;21041;-89
2022/01/18 04:38:06;;;;;;;27.98;5.25;;;;;;;-2.32;81.82;101607.33;2088599;84;21021;-88
2022/01/18 04:41:12;;;;;;;16.20;5.00;;;;;;;-2.34;81.97;101613.02;2082654;84;21496;-88
2022/01/18 04:50:40;;;;;;;19.02;4.28;;;;;;;-2.35;82.12;101625.63;2081792;84;21032;-86
2022/01/18 04:53:49;;;;;;;17.30;5.00;;;;;;;-2.37;82.20;101623.97;2077421;83;21064;-87
2022/01/18 04:59:49;;;;;;;21.60;5.70;;;;;;;-2.42;82.33;101618.92;2080899;84;21671;-89
2022/01/18 05:02:51;;;;;;;17.20;4.45;;;;;;;-2.46;82.45;101621.20;2076840;85;21071;-88
2022/01/18 05:05:56;;;;;;;21.17;4.80;;;;;;;-2.46;82.65;101625.10;2072560;85;21036;-88
2022/01/18 05:08:57;;;;;;;16.70;4.45;;;;;;;-2.45;82.87;101620.75;2083838;84;21014;-88
2022/01/18 05:12:07;;;;;;;17.92;4.42;;;;;;;-2.47;82.68;101621.27;2080308;84;21067;-91
2022/01/18 05:15:08;;;;;;;17.05;4.78;;;;;;;-2.47;82.78;101630.36;2081372;84;21611;-90
2022/01/18 05:21:28;;;;;;;23.92;5.87;;;;;;;-2.53;82.83;101625.75;2075321;84;21045;-86
2022/01/18 05:24:27;;;;;;;24.15;5.28;;;;;;;-2.55;82.97;101631.43;2081621;84;22403;-90
2022/01/18 05:27:28;;;;;;;22.37;5.92;;;;;;;-2.53;83.02;101641.80;2077380;84;21029;-86
2022/01/18 05:30:31;;;;;;;17.55;5.33;;;;;;;-2.55;83.05;101644.42;2079571;84;21099;-87
2022/01/18 05:33:32;;;;;;;19.77;4.70;;;;;;;-2.56;82.94;101656.16;2084054;84;21522;-88
2022/01/18 05:36:33;;;;;;;25.15;6.47;;;;;;;-2.57;83.01;101651.86;2086334;84;21538;-85
2022/01/18 05:39:34;;;;;;;22.60;5.08;;;;;;;-2.57;83.05;101647.96;2085755;85;21142;-88
2022/01/18 05:42:35;;;;;;;19.55;5.20;;;;;;;-2.60;83.16;101648.06;2076112;85;21541;-88
2022/01/18 05:45:36;;;;;;;24.15;5.33;;;;;;;-2.62;83.39;101643.34;2081037;84;21000;-86
2022/01/18 05:48:38;;;;;;;21.52;5.33;;;;;;;-2.63;83.24;101646.40;2075922;84;21074;-87
2022/01/18 05:51:41;;;;;;;23.70;5.30;;;;;;;-2.60;83.33;101651.50;2076916;82;21028;-84
2022/01/18 05:54:42;;;;;;;29.25;6.95;;;;;;;-2.58;83.46;101651.47;2079927;84;21504;-89
2022/01/18 05:57:44;;;;;;;24.20;6.47;;;;;;;-2.59;83.30;101657.55;2082447;84;21063;-87
2022/01/18 06:00:52;;;;;;;19.65;5.50;;;;;;;-2.57;83.29;101657.06;2084772;84;21096;-87
2022/01/18 06:04:05;;;;;;;28.57;5.92;;;;;;;-2.59;83.23;101653.22;2082105;84;21095;-87
2022/01/18 06:06:56;;;;;;;20.08;5.87;;;;;;;-2.59;83.27;101658.42;2082446;84;21028;-86
2022/01/18 06:09:57;;;;;;;23.60;6.25;;;;;;;-2.61;83.39;101670.60;2073179;85;21037;-86
2022/01/18 06:13:01;;;;;;;18.12;5.28;;;;;;;-2.63;83.30;101674.98;2082063;84;20957;-88
2022/01/18 06:16:03;;;;;;;24.80;6.08;;;;;;;-2.64;83.41;101676.34;2080375;84;21042;-87
2022/01/18 06:19:05;;;;;;;29.00;5.80;;;;;;;-2.65;83.46;101671.57;2079645;84;21047;-87
2022/01/18 06:22:06;;;;;;;21.87;5.65;;;;;;;-2.66;83.51;101662.08;2073054;84;21432;-86
2022/01/18 06:25:08;;;;;;;27.05;6.95;;;;;;;-2.65;83.58;101664.23;2083417;84;21064;-87
2022/01/18 06:28:09;;;;;;;17.48;5.08;;;;;;;-2.65;83.47;101668.13;2074325;85;20996;-87
2022/01/18 06:31:10;;;;;;;25.05;6.12;;;;;;;-2.67;83.56;101666.89;2079367;84;21052;-87
2022/01/18 06:34:14;;;;;;;25.77;6.90;;;;;;;-2.66;83.68;101679.43;2076960;84;21016;-87
2022/01/18 06:37:15;;;;;;;25.52;5.83;;;;;;;-2.66;83.74;101679.43;2074583;85;21043;-86
2022/01/18 06:40:16;;;;;;;20.62;6.00;;;;;;;-2.64;83.70;101689.34;2072648;84;21079;-86
2022/01/18 06:43:18;;;;;;;26.57;6.17;;;;;;;-2.64;83.72;101701.03;2080477;85;21328;-86
2022/01/18 06:46:19;;;;;;;29.25;7.22;;;;;;;-2.64;83.69;101708.83;2073279;84;21079;-88
2022/01/18 06:49:21;;;;;;;28.60;6.28;;;;;;;-2.65;83.71;101706.66;2080758;84;21084;-86
2022/01/18 06:52:22;;;;;;;25.17;6.40;;;;;;;-2.64;83.92;101703.63;2081477;84;21080;-87
2022/01/18 06:55:23;;;;;;;26.68;7.17;;;;;;;-2.63;84.11;101716.56;2078751;84;21065;-87
2022/01/18 06:58:25;;;;;;;23.60;6.72;;;;;;;-2.60;84.00;101731.22;2080111;84;21595;-87
2022/01/18 07:01:26;;;;;;;28.87;6.60;;;;;;;-2.57;84.09;101733.73;2080529;84;21047;-88
2022/01/18 07:04:28;;;;;;;27.70;8.10;;;;;;;-2.55;84.03;101733.25;2078929;84;21021;-87
2022/01/18 07:07:29;;;;;;;25.23;7.17;;;;;;;-2.52;84.27;101735.77;2077835;84;21065;-88
2022/01/18 07:10:31;;;;;;;31.02;7.80;;;;;;;-2.46;84.26;101756.38;2077376;84;21028;-88
2022/01/18 07:13:33;;;;;;;29.40;7.20;;;;;;;-2.41;84.33;101761.00;2078305;84;20991;-87
2022/01/18 07:16:34;;;;;;;27.10;7.40;;;;;;;-2.33;84.41;101772.04;2069852;84;21046;-87
2022/01/18 07:19:37;;;;;;;26.50;6.33;;;;;;;-2.25;84.44;101766.63;2077960;84;21097;-87
2022/01/18 07:22:42;;;;;;;29.80;7.58;;;;;;;-2.17;84.44;101762.02;2078813;84;21029;-89
2022/01/18 07:25:45;;;;;;;24.18;6.70;;;;;;;-2.12;84.44;101775.75;2079084;84;21088;-87
2022/01/18 07:28:45;;;;;;;24.05;7.25;;;;;;;-2.06;84.44;101777.32;2084730;84;21067;-89
2022/01/18 07:31:47;;;;;;;29.48;7.62;;;;;;;-2.01;84.45;101783.24;2084720;84;21033;-87
2022/01/18 07:34:57;;;;;;;25.30;6.33;;;;;;;-1.97;84.60;101790.08;2082660;84;21553;-86
2022/01/18 07:37:56;;;;;;;23.62;7.28;;;;;;;-1.93;84.65;101794.28;2086173;84;21034;-87
2022/01/18 07:40:57;;;;;;;29.05;7.67;;;;;;;-1.88;84.68;101783.29;2085864;84;21006;-87
2022/01/18 07:43:58;;;;;;;33.88;7.28;;;;;;;-1.84;84.63;101782.28;2074935;84;21020;-87
2022/01/18 07:46:59;;;;;;;32.30;7.30;;;;;;;-1.78;84.87;101783.00;2077766;84;21021;-86
2022/01/18 07:50:01;;;;;;;24.95;7.60;;;;;;;-1.78;84.88;101778.64;2078452;84;21053;-87
2022/01/18 07:53:02;;;;;;;24.57;7.42;;;;;;;-1.72;84.82;101794.06;2077281;84;21779;-88
2022/01/18 07:56:04;;;;;;;29.98;8.03;;;;;;;-1.65;84.89;101803.41;2086712;84;21054;-88
2022/01/18 07:59:05;;;;;;;28.92;8.35;;;;;;;-1.58;84.85;101804.05;2080489;84;21080;-88
2022/01/18 08:02:06;;;;;;;20.70;6.80;;;;;;;-1.51;84.77;101806.03;2082404;84;21072;-88
2022/01/18 08:05:10;;;;;;;28.55;6.83;;;;;;;-1.45;84.68;101806.68;2080934;84;21013;-87
2022/01/18 08:08:11;;;;;;;34.10;7.53;;;;;;;-1.40;84.66;101804.79;2085019;84;21138;-87
2022/01/18 08:11:13;;;;;;;26.50;7.37;;;;;;;-1.33;84.65;101820.21;2079478;84;21026;-88
2022/01/18 08:14:17;;;;;;;27.40;7.62;;;;;;;-1.27;84.66;101827.83;2079847;84;21019;-87
2022/01/18 08:17:17;;;;;;;31.37;7.85;;;;;;;-1.21;84.63;101826.31;2078700;84;21089;-86
2022/01/18 08:20:19;;;;;;;26.02;7.42;;;;;;;-1.16;84.55;101824.42;2078391;84;20994;-87
2022/01/18 08:23:20;;;;;;;34.25;9.10;;;;;;;-1.06;84.62;101829.74;2075584;84;21534;-87
2022/01/18 08:26:22;;;;;;;23.12;7.25;;;;;;;-1.01;84.49;101843.48;2080873;84;21024;-88
2022/01/18 08:29:23;;;;;;;35.65;8.30;;;;;;;-0.97;84.48;101842.92;2080202;84;21021;-88
2022/01/18 08:32:24;;;;;;;21.12;6.83;;;;;;;-0.95;84.32;101845.88;2085591;84;21005;-87
2022/01/18 08:35:26;;;;;;;25.97;7.67;;;;;;;-0.91;84.28;101844.02;2083953;84;21524;-88
2022/01/18 08:38:28;;;;;;;31.55;9.08;;;;;;;-0.87;84.28;101848.66;2082785;84;21561;-88
2022/01/18 08:41:29;;;;;;;30.65;8.73;;;;;;;-0.81;84.31;101848.02;2076850;84;21064;-87
2022/01/18 08:44:30;;;;;;;20.77;7.42;;;;;;;-0.75;84.28;101858.70;2075993;84;21531;-87
2022/01/18 08:47:31;;;;;;;28.92;7.83;;;;;;;-0.69;84.05;101870.22;2076663;84;21088;-88
2022/01/18 08:50:33;;;;;;;24.55;7.42;;;;;;;-0.66;83.84;101867.96;2077914;84;21014;-87
2022/01/18 08:53:35;;;;;;;31.97;7.33;;;;;;;-0.66;83.70;101877.93;2075690;82;21125;-88
2022/01/18 08:56:37;;;;;;;29.90;8.40;;;;;;;-0.62;83.63;101874.34;2071349;84;21010;-89
2022/01/18 08:59:40;;;;;;;20.10;6.50;;;;;;;-0.62;83.51;101879.55;2076294;84;21260;-88
2022/01/18 09:02:42;;;;;;;24.60;8.08;;;;;;;-0.57;83.49;101875.00;2079992;84;21289;-87
2022/01/18 09:05:45;;;;;;;29.57;8.00;;;;;;;-0.56;83.34;101883.25;2083351;85;21614;-87
2022/01/18 09:08:55;;;;;;;28.62;8.55;;;;;;;-0.52;83.29;101888.73;2074872;84;21619;-87
2022/01/18 09:11:50;;;;;;;32.40;8.58;;;;;;;-0.40;83.14;101895.75;2078491;84;21061;-88
2022/01/18 09:14:52;;;;;;;32.50;7.78;;;;;;;-0.22;82.97;101902.95;2080106;84;21090;-89
2022/01/18 09:17:54;;;;;;;31.55;8.23;;;;;;;-0.20;82.84;101907.63;2075463;85;21053;-88
2022/01/18 09:20:55;;;;;;;24.72;8.63;;;;;;;-0.18;82.60;101907.14;2077460;85;20981;-88
2022/01/18 09:23:56;;;;;;;36.42;8.43;;;;;;;-0.12;82.34;101910.83;2069529;84;21823;-89
2022/01/18 09:26:59;;;;;;;28.05;8.13;;;;;;;-0.10;82.36;101925.98;2084820;84;21035;-88
2022/01/18 09:30:01;;;;;;;32.75;9.80;;;;;;;0.02;82.32;101905.58;2078238;84;20976;-89
2022/01/18 09:33:06;;;;;;;26.30;9.65;;;;;;;0.06;82.19;101914.98;2071870;84;21087;-88
2022/01/18 09:36:07;;;;;;;29.30;8.68;;;;;;;0.09;81.58;101917.52;2084333;85;20985;-88
2022/01/18 09:39:08;;;;;;;24.60;8.43;;;;;;;0.01;81.59;101915.63;2083554;84;21051;-90
2022/01/18 09:42:12;;;;;;;27.85;8.93;;;;;;;-0.05;81.41;101924.07;2079119;84;21496;-90
2022/01/18 09:45:16;;;;;;;34.48;11.43;;;;;;;-0.09;81.57;101930.75;2057850;84;21530;-89
2022/01/18 09:48:18;;;;;;;40.03;11.60;;;;;;;-0.12;81.41;101938.23;2068713;85;21558;-90
2022/01/18 09:51:19;;;;;;;29.07;7.65;;;;;;;-0.13;81.59;101937.84;2076166;84;21056;-87
2022/01/18 09:54:21;;;;;;;33.33;9.55;;;;;;;-0.16;81.60;101949.69;2093995;83;20954;-90
2022/01/18 09:57:22;;;;;;;34.75;8.10;;;;;;;-0.12;81.73;101933.47;2103021;84;21028;-89
2022/01/18 10:00:28;;;;;;;24.15;7.78;;;;;;;-0.07;81.70;101934.16;2103348;84;21535;-88
2022/01/18 10:03:33;;;;;;;17.85;7.20;;;;;;;-0.04;81.53;101944.03;2104565;83;21047;-90
2022/01/18 10:06:36;;;;;;;24.25;9.53;;;;;;;0.08;81.36;101949.27;2105528;83;21052;-90
2022/01/18 10:09:38;;;;;;;34.20;9.28;;;;;;;0.32;81.61;101955.37;2102302;83;21000;-89
2022/01/18 10:12:39;;;;;;;26.42;8.03;;;;;;;0.40;81.45;101952.48;2102754;84;21094;-88
2022/01/18 10:16:03;;;;;;;34.23;9.48;;;;;;;0.39;81.03;101955.98;2106080;83;21427;-89
2022/01/18 10:19:05;;;;;;;30.85;10.10;;;;;;;0.48;80.73;101945.66;2109513;83;21084;-89
2022/01/18 10:22:33;;;;;;;20.70;9.20;;;;;;;0.51;80.61;101944.23;2161312;81;21485;-90
2022/01/18 10:25:34;;;;;;;24.25;8.75;;;;;;;0.52;79.92;101946.80;1965133;88;21146;-78
2022/01/18 10:28:35;;;;;;;24.65;8.63;;;;;;;0.77;80.62;101951.95;1987334;88;22282;-77
2022/01/18 10:31:57;;;;;;;29.32;8.95;;;;;;;0.82;79.58;101953.94;1965757;89;21074;-76
2022/01/18 10:37:55;;;;;;;31.70;9.58;;;;;;;0.88;79.48;101957.61;1963687;89;21113;-76
2022/01/18 10:40:56;;;;;;;25.00;8.30;;;;;;;0.95;80.02;101957.37;1961915;89;21189;-83
2022/01/18 10:44:05;;;;;;;31.17;9.65;;;;;;;0.89;79.34;101947.55;1968942;89;21092;-77
2022/01/18 10:47:07;;;;;;;25.15;9.50;;;;;;;0.86;78.96;101948.97;1964120;89;21048;-81
2022/01/18 10:50:20;;;;;;;25.72;8.60;;;;;;;0.84;79.24;101954.70;1970953;88;21573;-77
2022/01/18 10:53:27;;;;;;;26.52;8.80;;;;;;;0.90;79.34;101964.06;1961294;89;21666;-77
2022/01/18 10:56:43;;;;;;;27.05;8.00;;;;;;;1.12;79.63;101962.78;1967131;89;21054;-77
2022/01/18 10:59:45;;;;;;;26.45;8.48;;;;;;;1.26;78.42;101963.08;1968879;88;20963;-77
2022/01/18 11:02:50;;;;;;;25.97;8.65;;;;;;;1.21;78.58;101955.89;1961912;89;21062;-77
2022/01/18 11:05:54;;;;;;;18.45;7.40;;;;;;;1.21;78.45;101954.59;1966789;89;21086;-79
2022/01/18 11:08:55;;;;;;;36.40;10.53;;;;;;;1.10;78.14;101962.86;1967648;88;21054;-82
2022/01/18 11:11:57;;;;;;;26.80;8.13;;;;;;;1.08;78.32;101976.90;1962491;89;21661;-79
2022/01/18 11:15:05;;;;;;;25.43;8.83;;;;;;;1.04;78.34;101972.69;1962024;88;21011;-79
2022/01/18 11:18:17;;;;;;;34.08;9.10;;;;;;;0.99;78.15;101975.50;1966694;88;21067;-79
2022/01/18 11:21:12;;;;;;;22.40;8.35;;;;;;;0.93;77.77;101972.25;1991373;86;21069;-79
2022/01/18 11:24:18;;;;;;;23.20;8.83;;;;;;;0.78;77.88;101959.33;2018639;85;21087;-82
2022/01/18 11:27:19;;;;;;;26.15;8.03;;;;;;;0.72;77.97;101964.33;2036207;86;20995;-78
2022/01/18 11:30:25;;;;;;;23.95;8.83;;;;;;;0.72;77.93;101962.18;2038493;86;21520;-79
2022/01/18 11:33:29;;;;;;;28.50;9.53;;;;;;;0.72;78.12;101966.95;2040686;86;21095;-79
2022/01/18 11:36:39;;;;;;;30.27;9.80;;;;;;;0.76;78.38;101962.45;2038275;86;22253;-78
2022/01/18 11:39:40;;;;;;;30.48;10.68;;;;;;;0.74;77.82;101968.20;2037846;86;21081;-82
2022/01/18 11:42:53;;;;;;;28.07;9.83;;;;;;;0.71;77.76;101966.56;2035367;86;21089;-79
2022/01/18 11:45:57;;;;;;;29.27;10.82;;;;;;;0.70;77.79;101969.22;2042422;85;22176;-78
2022/01/18 11:49:21;;;;;;;46.63;15.40;;;;;;;0.66;77.85;101973.72;2043224;86;21065;-80
2022/01/18 11:52:39;;;;;;;35.08;14.15;;;;;;;0.65;78.22;101975.48;2037286;86;21095;-79
2022/01/18 11:55:38;;;;;;;42.73;20.20;;;;;;;0.75;78.31;101982.50;2037809;86;20969;-82
2022/01/18 11:58:44;;;;;;;38.20;13.22;;;;;;;0.81;78.45;101980.96;2041053;86;21604;-78
2022/01/18 12:01:55;;;;;;;34.83;12.53;;;;;;;0.83;78.35;101981.77;2029551;85;21660;-78
2022/01/18 12:05:08;;;;;;;28.27;9.28;;;;;;;0.82;77.96;101987.06;2024004;86;21019;-79
2022/01/18 12:08:06;;;;;;;30.30;9.63;;;;;;;0.85;78.17;101991.71;2030455;86;21020;-82
2022/01/18 12:11:21;;;;;;;25.27;8.40;;;;;;;0.83;77.86;101983.53;2025246;86;21117;-78
2022/01/18 12:14:34;;;;;;;30.23;9.78;;;;;;;0.82;77.79;101983.14;2028275;85;21061;-78
2022/01/18 12:17:51;;;;;;;27.82;8.70;;;;;;;0.77;77.73;101976.77;2026926;86;20994;-80
2022/01/18 12:20:58;;;;;;;29.02;8.78;;;;;;;0.72;77.68;101977.86;2024456;86;21040;-80
2022/01/18 12:24:16;;;;;;;25.10;8.15;;;;;;;0.62;77.69;101979.52;2028674;86;21087;-81
2022/01/18 12:27:31;;;;;;;24.35;8.55;;;;;;;0.59;77.69;101978.76;2015990;86;20983;-77
2022/01/18 12:30:54;;;;;;;28.98;9.45;;;;;;;0.54;77.86;101970.27;2014382;86;21418;-79
2022/01/18 12:33:44;;;;;;;;;;;;;;;0.52;77.92;101975.99;2015707;86;21636;-78
2022/01/18 12:36:45;;;;;;;28.25;10.18;;;;;;;0.46;77.64;101976.23;2018037;86;20562;-78
2022/01/18 12:39:57;;;;;;;27.13;9.43;;;;;;;0.41;77.87;101982.45;2017271;86;21051;-79
2022/01/18 12:46:05;;;;;;;35.70;10.75;;;;;;;0.42;78.09;101972.85;2001415;86;21068;-78
2022/01/18 12:49:08;;;;;;;26.40;9.68;;;;;;;0.42;78.08;101974.16;2016756;86;21065;-78
2022/01/18 12:52:09;;;;;;;29.65;10.38;;;;;;;0.43;78.14;101978.03;2017000;86;21043;-78
2022/01/18 12:55:30;;;;;;;29.52;9.45;;;;;;;0.47;78.26;101971.39;2004006;86;20992;-80
2022/01/18 12:58:45;;;;;;;28.35;10.58;;;;;;;0.52;78.32;101979.91;2025492;86;21038;-77
2022/01/18 13:01:52;;;;;;;26.60;10.30;;;;;;;0.61;78.47;101981.72;2025425;86;21105;-79
2022/01/18 13:05:04;;;;;;;28.40;9.53;;;;;;;0.72;78.57;101975.25;2016553;86;21120;-80
2022/01/18 13:08:07;;;;;;;25.35;9.93;;;;;;;0.82;78.52;101974.84;2013347;86;21426;-81
2022/01/18 13:11:11;;;;;;;39.10;10.82;;;;;;;0.92;78.31;101984.94;2018860;86;21094;-78
2022/01/18 13:14:15;;;;;;;29.72;10.20;;;;;;;0.93;78.04;101991.42;2015748;86;21110;-84
2022/01/18 13:27:29;;;;;;;28.32;8.70;;;;;;;0.85;78.04;101993.02;2026885;86;21077;-79
2022/01/18 13:30:29;;;;;;;26.55;7.83;;;;;;;0.80;77.52;101999.33;2027737;86;21728;-79
2022/01/18 13:33:55;;;;;;;27.55;8.10;;;;;;;0.73;77.66;101998.69;2025542;86;21530;-81
2022/01/18 13:36:58;;;;;;;24.63;7.90;;;;;;;0.73;77.83;102001.77;2026440;86;21086;-82
2022/01/18 13:40:09;;;;;;;23.92;8.53;;;;;;;0.72;77.75;102006.14;2024191;86;20995;-78
2022/01/18 13:43:15;;;;;;;37.53;10.45;;;;;;;0.73;77.74;102006.98;2029914;86;21080;-78
2022/01/18 13:46:29;;;;;;;31.48;9.95;;;;;;;0.66;77.62;102007.68;2030799;86;21503;-78
2022/01/18 13:49:30;;;;;;;25.15;9.38;;;;;;;0.65;77.79;102001.61;2028329;86;21077;-78
2022/01/18 13:52:32;;;;;;;32.70;9.68;;;;;;;0.59;77.76;102008.80;2028496;86;21506;-83
2022/01/18 13:55:37;;;;;;;27.35;8.35;;;;;;;0.55;77.70;101990.25;2032332;86;21644;-79
2022/01/18 13:58:43;;;;;;;23.70;8.35;;;;;;;0.52;77.69;101998.20;2026185;85;21060;-79
2022/01/18 14:01:45;;;;;;;20.30;8.35;;;;;;;0.49;77.79;101998.31;2028661;86;21106;-78
2022/01/18 14:05:05;;;;;;;34.65;8.73;;;;;;;0.48;77.76;102004.42;2028593;86;21014;-83
2022/01/18 14:08:11;;;;;;;28.70;8.48;;;;;;;0.48;77.81;102009.65;2027382;86;21556;-79
2022/01/18 14:11:19;;;;;;;25.25;8.58;;;;;;;0.47;77.74;102002.73;2028767;86;21106;-78
2022/01/18 14:14:29;;;;;;;27.30;8.68;;;;;;;0.43;77.65;102002.84;2031963;84;21068;-79
2022/01/18 14:17:30;;;;;;;23.10;7.20;;;;;;;0.40;77.75;102000.34;2029346;85;21630;-78
2022/01/18 14:20:33;;;;;;;28.57;8.33;;;;;;;0.42;77.90;102004.19;2010511;86;21103;-78
2022/01/18 14:23:34;;;;;;;21.95;8.40;;;;;;;0.43;78.02;102008.06;2029441;84;21485;-78
2022/01/18 14:26:41;;;;;;;24.92;9.33;;;;;;;0.41;78.02;102004.66;2025163;85;21469;-82
2022/01/18 14:29:47;;;;;;;29.70;8.20;;;;;;;0.41;78.01;102003.80;2021244;87;21631;-78
2022/01/18 14:32:51;;;;;;;36.50;9.23;;;;;;;0.35;78.03;102006.64;2024692;85;21053;-79
2022/01/18 14:35:52;;;;;;;22.98;8.53;;;;;;;0.31;78.08;102005.91;2001195;87;21015;-78
2022/01/18 14:39:10;;;;;;;33.70;6.78;;;;;;;0.30;78.11;102017.70;2023630;87;21071;-81
2022/01/18 14:42:16;;;;;;;20.00;6.65;;;;;;;0.23;78.05;102017.08;1999540;86;22507;-82
2022/01/18 14:48:30;;;;;;;21.60;6.92;;;;;;;0.15;78.17;102038.68;2022381;87;21003;-80
2022/01/18 14:51:32;;;;;;;26.82;8.03;;;;;;;0.13;78.14;102044.39;2021171;87;21121;-78
2022/01/18 14:54:33;;;;;;;32.23;8.70;;;;;;;0.10;78.16;102041.44;2029163;85;22441;-77
2022/01/18 14:57:35;;;;;;;30.43;8.83;;;;;;;0.08;78.25;102041.94;2021598;87;21085;-80
2022/01/18 15:00:41;;;;;;;30.27;8.90;;;;;;;0.05;78.25;102028.14;2029266;86;22341;-77
2022/01/18 15:03:42;;;;;;;29.48;9.55;;;;;;;-0.04;78.27;102030.16;2024697;87;22238;-78
2022/01/18 15:06:43;;;;;;;24.30;8.03;;;;;;;-0.10;78.36;102035.59;2024401;87;21323;-77
2022/01/18 15:09:45;;;;;;;30.75;8.88;;;;;;;-0.13;78.50;102040.06;2023371;87;21063;-81
2022/01/18 15:12:49;;;;;;;35.48;9.10;;;;;;;-0.18;78.55;102033.69;2021869;87;20977;-77
2022/01/18 15:15:50;;;;;;;25.92;9.45;;;;;;;-0.20;78.64;102035.48;2024191;87;21063;-80
2022/01/18 15:18:52;;;;;;;26.75;7.87;;;;;;;-0.27;78.68;102023.56;2023538;87;21060;-77
2022/01/18 15:21:54;;;;;;;20.37;7.28;;;;;;;-0.31;78.79;102037.17;2023683;85;20998;-84
2022/01/18 15:24:55;;;;;;;30.65;8.25;;;;;;;-0.36;78.85;102042.12;1990849;88;21575;-78